sensor_id;sensor_type;location;lat;lon;timestamp;temperature;humidity
51476;DHT22;37554;50.362;7.568;2023-07-31T00:00:47;22.60;54.10
51476;DHT22;37554;50.362;7.568;2023-07-31T00:03:12;22.60;54.30
51476;DHT22;37554;50.362;7.568;2023-07-31T00:05:38;22.60;54.30
51476;DHT22;37554;50.362;7.568;2023-07-31T00:08:03;22.60;54.40
51476;DHT22;37554;50.362;7.568;2023-07-31T00:10:29;22.50;54.50
51476;DHT22;37554;50.362;7.568;2023-07-31T00:12:55;22.50;54.50
51476;DHT22;37554;50.362;7.568;2023-07-31T00:15:20;22.60;54.60
51476;DHT22;37554;50.362;7.568;2023-07-31T00:17:46;22.60;54.70
51476;DHT22;37554;50.362;7.568;2023-07-31T00:20:13;22.50;54.70
51476;DHT22;37554;50.362;7.568;2023-07-31T00:22:38;22.50;55.30
51476;DHT22;37554;50.362;7.568;2023-07-31T00:25:04;22.50;54.70
51476;DHT22;37554;50.362;7.568;2023-07-31T00:27:32;22.50;54.80
51476;DHT22;37554;50.362;7.568;2023-07-31T00:29:57;22.50;54.80
51476;DHT22;37554;50.362;7.568;2023-07-31T00:32:23;22.50;55.50
51476;DHT22;37554;50.362;7.568;2023-07-31T00:34:48;22.50;54.90
51476;DHT22;37554;50.362;7.568;2023-07-31T00:37:14;22.50;55.00
51476;DHT22;37554;50.362;7.568;2023-07-31T00:39:41;22.50;55.10
51476;DHT22;37554;50.362;7.568;2023-07-31T00:42:07;22.50;55.20
51476;DHT22;37554;50.362;7.568;2023-07-31T00:44:33;22.50;55.20
51476;DHT22;37554;50.362;7.568;2023-07-31T00:46:59;22.50;55.30
51476;DHT22;37554;50.362;7.568;2023-07-31T00:49:25;22.50;55.40
51476;DHT22;37554;50.362;7.568;2023-07-31T00:51:52;22.50;55.60
51476;DHT22;37554;50.362;7.568;2023-07-31T00:54:18;22.40;55.60
51476;DHT22;37554;50.362;7.568;2023-07-31T00:56:45;22.40;55.60
51476;DHT22;37554;50.362;7.568;2023-07-31T00:59:14;22.40;55.60
51476;DHT22;37554;50.362;7.568;2023-07-31T01:01:40;22.40;55.70
51476;DHT22;37554;50.362;7.568;2023-07-31T01:04:06;22.40;55.80
51476;DHT22;37554;50.362;7.568;2023-07-31T01:12:03;22.40;55.90
51476;DHT22;37554;50.362;7.568;2023-07-31T01:14:29;22.40;56.00
51476;DHT22;37554;50.362;7.568;2023-07-31T01:16:55;22.40;56.00
51476;DHT22;37554;50.362;7.568;2023-07-31T01:19:26;22.40;56.00
51476;DHT22;37554;50.362;7.568;2023-07-31T01:24:48;22.40;56.20
51476;DHT22;37554;50.362;7.568;2023-07-31T01:27:25;22.40;56.20
51476;DHT22;37554;50.362;7.568;2023-07-31T01:30:15;22.40;56.30
51476;DHT22;37554;50.362;7.568;2023-07-31T01:32:43;22.40;56.60
51476;DHT22;37554;50.362;7.568;2023-07-31T01:35:10;22.40;56.40
51476;DHT22;37554;50.362;7.568;2023-07-31T01:37:36;22.40;56.50
51476;DHT22;37554;50.362;7.568;2023-07-31T01:40:01;22.40;56.50
51476;DHT22;37554;50.362;7.568;2023-07-31T01:42:27;22.40;56.50
51476;DHT22;37554;50.362;7.568;2023-07-31T01:44:53;22.40;56.60
51476;DHT22;37554;50.362;7.568;2023-07-31T01:47:18;22.40;56.70
51476;DHT22;37554;50.362;7.568;2023-07-31T01:49:44;22.40;56.70
51476;DHT22;37554;50.362;7.568;2023-07-31T01:52:09;22.40;56.70
51476;DHT22;37554;50.362;7.568;2023-07-31T01:54:35;22.30;56.70
51476;DHT22;37554;50.362;7.568;2023-07-31T01:57:02;22.30;56.80
51476;DHT22;37554;50.362;7.568;2023-07-31T01:59:28;22.30;56.80
51476;DHT22;37554;50.362;7.568;2023-07-31T02:01:54;22.30;56.90
51476;DHT22;37554;50.362;7.568;2023-07-31T02:04:20;22.30;56.90
51476;DHT22;37554;50.362;7.568;2023-07-31T02:06:45;22.30;56.90
51476;DHT22;37554;50.362;7.568;2023-07-31T02:09:11;22.30;57.00
51476;DHT22;37554;50.362;7.568;2023-07-31T02:11:36;22.30;57.00
51476;DHT22;37554;50.362;7.568;2023-07-31T02:14:02;22.30;57.00
51476;DHT22;37554;50.362;7.568;2023-07-31T02:16:28;22.30;57.10
51476;DHT22;37554;50.362;7.568;2023-07-31T02:18:53;22.30;57.20
51476;DHT22;37554;50.362;7.568;2023-07-31T02:21:19;22.30;57.30
51476;DHT22;37554;50.362;7.568;2023-07-31T02:23:44;22.20;57.20
51476;DHT22;37554;50.362;7.568;2023-07-31T02:26:10;22.20;57.20
51476;DHT22;37554;50.362;7.568;2023-07-31T02:28:36;22.30;57.40
51476;DHT22;37554;50.362;7.568;2023-07-31T02:31:02;22.20;57.40
51476;DHT22;37554;50.362;7.568;2023-07-31T02:33:28;22.20;57.40
51476;DHT22;37554;50.362;7.568;2023-07-31T02:35:53;22.20;57.50
51476;DHT22;37554;50.362;7.568;2023-07-31T02:38:19;22.30;57.60
51476;DHT22;37554;50.362;7.568;2023-07-31T02:40:45;22.20;57.70
51476;DHT22;37554;50.362;7.568;2023-07-31T02:43:10;22.20;57.80
51476;DHT22;37554;50.362;7.568;2023-07-31T02:45:36;22.20;57.90
51476;DHT22;37554;50.362;7.568;2023-07-31T02:48:02;22.20;58.60
51476;DHT22;37554;50.362;7.568;2023-07-31T02:50:27;22.20;58.10
51476;DHT22;37554;50.362;7.568;2023-07-31T02:52:54;22.20;58.10
51476;DHT22;37554;50.362;7.568;2023-07-31T02:55:19;22.20;58.20
51476;DHT22;37554;50.362;7.568;2023-07-31T02:57:45;22.20;58.30
51476;DHT22;37554;50.362;7.568;2023-07-31T03:00:11;22.10;58.40
51476;DHT22;37554;50.362;7.568;2023-07-31T03:02:36;22.10;58.50
51476;DHT22;37554;50.362;7.568;2023-07-31T03:05:02;22.10;58.50
51476;DHT22;37554;50.362;7.568;2023-07-31T03:07:28;22.20;58.70
51476;DHT22;37554;50.362;7.568;2023-07-31T03:09:55;22.10;58.70
51476;DHT22;37554;50.362;7.568;2023-07-31T03:12:21;22.10;58.80
51476;DHT22;37554;50.362;7.568;2023-07-31T03:14:46;22.10;58.90
51476;DHT22;37554;50.362;7.568;2023-07-31T03:17:12;22.10;59.10
51476;DHT22;37554;50.362;7.568;2023-07-31T03:19:38;22.10;59.10
51476;DHT22;37554;50.362;7.568;2023-07-31T03:22:03;22.10;59.20
51476;DHT22;37554;50.362;7.568;2023-07-31T03:24:29;22.10;59.30
51476;DHT22;37554;50.362;7.568;2023-07-31T03:26:55;22.10;59.40
51476;DHT22;37554;50.362;7.568;2023-07-31T03:29:20;22.10;59.40
51476;DHT22;37554;50.362;7.568;2023-07-31T03:31:46;22.10;59.60
51476;DHT22;37554;50.362;7.568;2023-07-31T03:34:11;22.10;59.60
51476;DHT22;37554;50.362;7.568;2023-07-31T03:36:37;22.10;59.70
51476;DHT22;37554;50.362;7.568;2023-07-31T03:39:03;22.00;59.70
51476;DHT22;37554;50.362;7.568;2023-07-31T03:41:28;22.00;59.80
51476;DHT22;37554;50.362;7.568;2023-07-31T03:43:54;22.00;59.90
51476;DHT22;37554;50.362;7.568;2023-07-31T03:46:23;22.00;60.00
51476;DHT22;37554;50.362;7.568;2023-07-31T03:48:49;22.00;60.10
51476;DHT22;37554;50.362;7.568;2023-07-31T03:51:15;22.00;60.20
51476;DHT22;37554;50.362;7.568;2023-07-31T03:53:42;22.00;60.20
51476;DHT22;37554;50.362;7.568;2023-07-31T03:56:07;22.00;60.20
51476;DHT22;37554;50.362;7.568;2023-07-31T03:58:33;22.00;60.30
51476;DHT22;37554;50.362;7.568;2023-07-31T04:00:58;22.00;60.40
51476;DHT22;37554;50.362;7.568;2023-07-31T04:03:24;22.00;60.40
51476;DHT22;37554;50.362;7.568;2023-07-31T04:05:50;22.00;60.50
51476;DHT22;37554;50.362;7.568;2023-07-31T04:08:15;21.90;60.60
51476;DHT22;37554;50.362;7.568;2023-07-31T04:10:41;21.90;60.70
51476;DHT22;37554;50.362;7.568;2023-07-31T04:13:06;21.90;61.40
51476;DHT22;37554;50.362;7.568;2023-07-31T04:15:32;21.90;60.90
51476;DHT22;37554;50.362;7.568;2023-07-31T04:17:58;21.90;61.00
51476;DHT22;37554;50.362;7.568;2023-07-31T04:20:23;21.90;61.00
51476;DHT22;37554;50.362;7.568;2023-07-31T04:22:49;21.90;61.10
51476;DHT22;37554;50.362;7.568;2023-07-31T04:25:15;21.90;61.00
51476;DHT22;37554;50.362;7.568;2023-07-31T04:27:40;21.90;61.10
51476;DHT22;37554;50.362;7.568;2023-07-31T04:30:06;21.90;61.20
51476;DHT22;37554;50.362;7.568;2023-07-31T04:32:32;21.90;61.30
51476;DHT22;37554;50.362;7.568;2023-07-31T04:34:58;21.90;61.30
51476;DHT22;37554;50.362;7.568;2023-07-31T04:37:23;21.90;61.40
51476;DHT22;37554;50.362;7.568;2023-07-31T04:39:49;21.90;61.40
51476;DHT22;37554;50.362;7.568;2023-07-31T04:42:14;21.90;61.50
51476;DHT22;37554;50.362;7.568;2023-07-31T04:44:40;21.90;61.40
51476;DHT22;37554;50.362;7.568;2023-07-31T04:47:05;21.90;61.50
51476;DHT22;37554;50.362;7.568;2023-07-31T04:49:32;21.90;61.60
51476;DHT22;37554;50.362;7.568;2023-07-31T04:51:58;22.00;61.80
51476;DHT22;37554;50.362;7.568;2023-07-31T04:54:23;21.90;61.80
51476;DHT22;37554;50.362;7.568;2023-07-31T04:56:49;21.90;61.80
51476;DHT22;37554;50.362;7.568;2023-07-31T04:59:15;22.00;61.90
51476;DHT22;37554;50.362;7.568;2023-07-31T05:01:40;22.00;62.00
51476;DHT22;37554;50.362;7.568;2023-07-31T05:04:06;22.00;61.90
51476;DHT22;37554;50.362;7.568;2023-07-31T05:06:32;22.00;62.00
51476;DHT22;37554;50.362;7.568;2023-07-31T05:08:58;22.00;62.00
51476;DHT22;37554;50.362;7.568;2023-07-31T05:11:23;22.00;62.00
51476;DHT22;37554;50.362;7.568;2023-07-31T05:13:49;22.00;62.00
51476;DHT22;37554;50.362;7.568;2023-07-31T05:16:14;22.00;62.00
51476;DHT22;37554;50.362;7.568;2023-07-31T05:18:40;22.00;62.00
51476;DHT22;37554;50.362;7.568;2023-07-31T05:21:05;22.00;62.10
51476;DHT22;37554;50.362;7.568;2023-07-31T05:23:31;22.00;62.20
51476;DHT22;37554;50.362;7.568;2023-07-31T05:26:08;22.00;62.20
51476;DHT22;37554;50.362;7.568;2023-07-31T05:28:36;22.10;62.40
51476;DHT22;37554;50.362;7.568;2023-07-31T05:31:03;22.10;62.20
51476;DHT22;37554;50.362;7.568;2023-07-31T05:33:30;22.10;62.10
51476;DHT22;37554;50.362;7.568;2023-07-31T05:35:56;22.10;62.00
51476;DHT22;37554;50.362;7.568;2023-07-31T05:38:22;22.20;62.00
51476;DHT22;37554;50.362;7.568;2023-07-31T05:40:48;22.10;61.90
51476;DHT22;37554;50.362;7.568;2023-07-31T05:43:14;22.10;61.90
51476;DHT22;37554;50.362;7.568;2023-07-31T05:45:41;22.20;62.00
51476;DHT22;37554;50.362;7.568;2023-07-31T05:48:07;22.20;61.90
51476;DHT22;37554;50.362;7.568;2023-07-31T05:50:33;22.20;61.90
51476;DHT22;37554;50.362;7.568;2023-07-31T05:52:58;22.20;61.80
51476;DHT22;37554;50.362;7.568;2023-07-31T05:55:24;22.20;61.80
51476;DHT22;37554;50.362;7.568;2023-07-31T05:57:52;22.20;61.80
51476;DHT22;37554;50.362;7.568;2023-07-31T06:00:18;22.20;61.80
51476;DHT22;37554;50.362;7.568;2023-07-31T06:02:44;22.20;61.70
51476;DHT22;37554;50.362;7.568;2023-07-31T06:05:10;22.20;61.70
51476;DHT22;37554;50.362;7.568;2023-07-31T06:07:35;22.30;61.80
51476;DHT22;37554;50.362;7.568;2023-07-31T06:10:02;22.30;61.60
51476;DHT22;37554;50.362;7.568;2023-07-31T06:12:31;22.40;61.50
51476;DHT22;37554;50.362;7.568;2023-07-31T06:14:57;22.50;61.30
51476;DHT22;37554;50.362;7.568;2023-07-31T06:17:22;22.60;61.00
51476;DHT22;37554;50.362;7.568;2023-07-31T06:19:49;22.60;60.80
51476;DHT22;37554;50.362;7.568;2023-07-31T06:22:14;22.70;60.70
51476;DHT22;37554;50.362;7.568;2023-07-31T06:24:40;22.70;60.60
51476;DHT22;37554;50.362;7.568;2023-07-31T06:27:06;22.80;60.50
51476;DHT22;37554;50.362;7.568;2023-07-31T06:29:32;22.80;60.40
51476;DHT22;37554;50.362;7.568;2023-07-31T06:31:58;22.80;60.30
51476;DHT22;37554;50.362;7.568;2023-07-31T06:34:23;22.80;60.20
51476;DHT22;37554;50.362;7.568;2023-07-31T06:36:49;22.80;60.10
51476;DHT22;37554;50.362;7.568;2023-07-31T06:39:14;22.70;60.00
51476;DHT22;37554;50.362;7.568;2023-07-31T06:41:41;22.70;60.10
51476;DHT22;37554;50.362;7.568;2023-07-31T06:44:06;22.70;60.10
51476;DHT22;37554;50.362;7.568;2023-07-31T06:46:32;22.80;60.10
51476;DHT22;37554;50.362;7.568;2023-07-31T06:48:58;22.80;60.10
51476;DHT22;37554;50.362;7.568;2023-07-31T06:51:23;22.80;60.00
51476;DHT22;37554;50.362;7.568;2023-07-31T06:53:49;22.80;60.10
51476;DHT22;37554;50.362;7.568;2023-07-31T06:56:15;22.80;60.20
51476;DHT22;37554;50.362;7.568;2023-07-31T06:58:40;22.80;60.20
51476;DHT22;37554;50.362;7.568;2023-07-31T07:01:06;22.80;60.20
51476;DHT22;37554;50.362;7.568;2023-07-31T07:03:32;22.70;60.30
51476;DHT22;37554;50.362;7.568;2023-07-31T07:05:58;22.70;60.40
51476;DHT22;37554;50.362;7.568;2023-07-31T07:08:24;22.70;60.40
51476;DHT22;37554;50.362;7.568;2023-07-31T07:10:50;22.80;60.30
51476;DHT22;37554;50.362;7.568;2023-07-31T07:13:15;22.80;60.20
51476;DHT22;37554;50.362;7.568;2023-07-31T07:15:41;22.80;60.10
51476;DHT22;37554;50.362;7.568;2023-07-31T07:18:07;22.80;60.20
51476;DHT22;37554;50.362;7.568;2023-07-31T07:20:33;22.80;60.10
51476;DHT22;37554;50.362;7.568;2023-07-31T07:22:58;22.90;60.10
51476;DHT22;37554;50.362;7.568;2023-07-31T07:25:24;22.90;60.00
51476;DHT22;37554;50.362;7.568;2023-07-31T07:27:49;22.90;60.00
51476;DHT22;37554;50.362;7.568;2023-07-31T07:30:15;22.90;59.80
51476;DHT22;37554;50.362;7.568;2023-07-31T07:32:41;23.00;59.70
51476;DHT22;37554;50.362;7.568;2023-07-31T07:35:07;23.00;59.60
51476;DHT22;37554;50.362;7.568;2023-07-31T07:37:32;23.00;59.40
51476;DHT22;37554;50.362;7.568;2023-07-31T07:39:59;23.10;59.20
51476;DHT22;37554;50.362;7.568;2023-07-31T07:42:24;23.10;59.00
51476;DHT22;37554;50.362;7.568;2023-07-31T07:44:50;23.20;58.80
51476;DHT22;37554;50.362;7.568;2023-07-31T07:47:16;23.20;58.70
51476;DHT22;37554;50.362;7.568;2023-07-31T07:49:41;23.30;58.70
51476;DHT22;37554;50.362;7.568;2023-07-31T07:52:07;23.30;58.40
51476;DHT22;37554;50.362;7.568;2023-07-31T07:54:33;23.30;58.30
51476;DHT22;37554;50.362;7.568;2023-07-31T07:56:59;23.40;58.30
51476;DHT22;37554;50.362;7.568;2023-07-31T07:59:24;23.40;58.20
51476;DHT22;37554;50.362;7.568;2023-07-31T08:01:50;23.40;58.20
51476;DHT22;37554;50.362;7.568;2023-07-31T08:04:18;23.40;58.30
51476;DHT22;37554;50.362;7.568;2023-07-31T08:06:44;23.40;58.40
51476;DHT22;37554;50.362;7.568;2023-07-31T08:09:09;23.40;58.40
51476;DHT22;37554;50.362;7.568;2023-07-31T08:11:35;23.40;58.50
51476;DHT22;37554;50.362;7.568;2023-07-31T08:14:01;23.40;58.50
51476;DHT22;37554;50.362;7.568;2023-07-31T08:16:26;23.30;58.60
51476;DHT22;37554;50.362;7.568;2023-07-31T08:18:52;23.40;58.70
51476;DHT22;37554;50.362;7.568;2023-07-31T08:21:18;23.40;58.80
51476;DHT22;37554;50.362;7.568;2023-07-31T08:23:43;23.30;58.80
51476;DHT22;37554;50.362;7.568;2023-07-31T08:26:15;23.30;59.00
51476;DHT22;37554;50.362;7.568;2023-07-31T08:28:41;23.20;59.10
51476;DHT22;37554;50.362;7.568;2023-07-31T08:31:07;23.20;59.30
51476;DHT22;37554;50.362;7.568;2023-07-31T08:33:32;23.20;59.40
51476;DHT22;37554;50.362;7.568;2023-07-31T08:35:58;23.20;59.70
51476;DHT22;37554;50.362;7.568;2023-07-31T08:38:25;23.20;59.80
51476;DHT22;37554;50.362;7.568;2023-07-31T08:40:51;23.20;60.00
51476;DHT22;37554;50.362;7.568;2023-07-31T08:43:16;23.20;60.10
51476;DHT22;37554;50.362;7.568;2023-07-31T08:45:42;23.20;60.20
51476;DHT22;37554;50.362;7.568;2023-07-31T08:48:08;23.30;60.40
51476;DHT22;37554;50.362;7.568;2023-07-31T08:50:35;23.30;60.50
51476;DHT22;37554;50.362;7.568;2023-07-31T08:53:01;23.30;60.70
51476;DHT22;37554;50.362;7.568;2023-07-31T08:55:28;23.30;60.70
51476;DHT22;37554;50.362;7.568;2023-07-31T08:57:55;23.30;61.00
51476;DHT22;37554;50.362;7.568;2023-07-31T09:00:21;23.30;61.10
51476;DHT22;37554;50.362;7.568;2023-07-31T09:03:13;23.40;61.20
51476;DHT22;37554;50.362;7.568;2023-07-31T09:05:42;23.40;61.50
51476;DHT22;37554;50.362;7.568;2023-07-31T09:08:09;23.40;61.30
51476;DHT22;37554;50.362;7.568;2023-07-31T09:10:35;23.40;61.20
51476;DHT22;37554;50.362;7.568;2023-07-31T09:13:05;23.40;61.20
51476;DHT22;37554;50.362;7.568;2023-07-31T09:15:31;23.40;61.20
51476;DHT22;37554;50.362;7.568;2023-07-31T09:18:02;23.40;61.00
51476;DHT22;37554;50.362;7.568;2023-07-31T09:20:28;23.40;61.00
51476;DHT22;37554;50.362;7.568;2023-07-31T09:22:55;23.50;61.60
51476;DHT22;37554;50.362;7.568;2023-07-31T09:25:25;23.50;61.00
51476;DHT22;37554;50.362;7.568;2023-07-31T09:27:59;23.60;60.50
51476;DHT22;37554;50.362;7.568;2023-07-31T09:30:25;23.60;60.30
51476;DHT22;37554;50.362;7.568;2023-07-31T09:32:52;23.60;60.20
51476;DHT22;37554;50.362;7.568;2023-07-31T09:35:33;23.70;60.00
51476;DHT22;37554;50.362;7.568;2023-07-31T09:38:02;23.80;59.70
51476;DHT22;37554;50.362;7.568;2023-07-31T09:40:33;23.90;59.40
51476;DHT22;37554;50.362;7.568;2023-07-31T09:43:04;24.00;59.00
51476;DHT22;37554;50.362;7.568;2023-07-31T09:45:33;24.10;58.50
51476;DHT22;37554;50.362;7.568;2023-07-31T09:47:59;24.10;58.30
51476;DHT22;37554;50.362;7.568;2023-07-31T09:50:25;24.20;57.80
51476;DHT22;37554;50.362;7.568;2023-07-31T09:52:51;24.40;57.50
51476;DHT22;37554;50.362;7.568;2023-07-31T09:55:17;24.40;57.20
51476;DHT22;37554;50.362;7.568;2023-07-31T09:57:46;24.40;57.00
51476;DHT22;37554;50.362;7.568;2023-07-31T10:00:13;24.40;56.60
51476;DHT22;37554;50.362;7.568;2023-07-31T10:02:39;24.50;56.40
51476;DHT22;37554;50.362;7.568;2023-07-31T10:05:06;24.50;56.10
51476;DHT22;37554;50.362;7.568;2023-07-31T10:07:37;24.60;55.90
51476;DHT22;37554;50.362;7.568;2023-07-31T10:10:04;24.70;55.70
51476;DHT22;37554;50.362;7.568;2023-07-31T10:12:32;24.80;55.50
51476;DHT22;37554;50.362;7.568;2023-07-31T10:14:59;24.90;55.20
51476;DHT22;37554;50.362;7.568;2023-07-31T10:17:25;25.00;55.00
51476;DHT22;37554;50.362;7.568;2023-07-31T10:19:52;25.00;54.90
51476;DHT22;37554;50.362;7.568;2023-07-31T10:22:19;25.00;54.80
51476;DHT22;37554;50.362;7.568;2023-07-31T10:24:46;25.10;54.80
51476;DHT22;37554;50.362;7.568;2023-07-31T10:27:12;25.10;54.70
51476;DHT22;37554;50.362;7.568;2023-07-31T10:29:39;25.00;54.60
51476;DHT22;37554;50.362;7.568;2023-07-31T10:32:06;25.10;54.50
51476;DHT22;37554;50.362;7.568;2023-07-31T10:34:35;25.20;54.30
51476;DHT22;37554;50.362;7.568;2023-07-31T10:42:28;25.80;53.30
51476;DHT22;37554;50.362;7.568;2023-07-31T10:44:59;26.20;52.90
51476;DHT22;37554;50.362;7.568;2023-07-31T10:47:24;26.20;52.60
51476;DHT22;37554;50.362;7.568;2023-07-31T10:49:50;26.20;52.60
51476;DHT22;37554;50.362;7.568;2023-07-31T10:52:20;26.20;52.60
51476;DHT22;37554;50.362;7.568;2023-07-31T10:57:49;25.90;50.70
51476;DHT22;37554;50.362;7.568;2023-07-31T11:00:23;25.40;52.00
51476;DHT22;37554;50.362;7.568;2023-07-31T11:03:04;25.00;52.60
51476;DHT22;37554;50.362;7.568;2023-07-31T11:10:37;24.50;54.00
51476;DHT22;37554;50.362;7.568;2023-07-31T11:13:04;24.40;54.00
51476;DHT22;37554;50.362;7.568;2023-07-31T11:15:30;24.30;53.90
51476;DHT22;37554;50.362;7.568;2023-07-31T11:17:56;24.20;54.10
51476;DHT22;37554;50.362;7.568;2023-07-31T11:20:24;24.20;54.00
51476;DHT22;37554;50.362;7.568;2023-07-31T11:22:50;24.30;53.70
51476;DHT22;37554;50.362;7.568;2023-07-31T11:25:16;24.30;53.90
51476;DHT22;37554;50.362;7.568;2023-07-31T11:27:43;24.20;53.70
51476;DHT22;37554;50.362;7.568;2023-07-31T11:30:09;24.10;53.90
51476;DHT22;37554;50.362;7.568;2023-07-31T11:32:38;24.10;54.00
51476;DHT22;37554;50.362;7.568;2023-07-31T11:35:04;24.10;53.70
51476;DHT22;37554;50.362;7.568;2023-07-31T11:37:41;24.40;53.50
51476;DHT22;37554;50.362;7.568;2023-07-31T11:40:07;25.10;52.70
51476;DHT22;37554;50.362;7.568;2023-07-31T11:42:34;25.50;51.00
51476;DHT22;37554;50.362;7.568;2023-07-31T11:45:08;25.30;51.20
51476;DHT22;37554;50.362;7.568;2023-07-31T11:47:35;25.20;51.10
51476;DHT22;37554;50.362;7.568;2023-07-31T11:50:02;25.10;51.40
51476;DHT22;37554;50.362;7.568;2023-07-31T11:52:39;26.20;50.60
51476;DHT22;37554;50.362;7.568;2023-07-31T11:55:05;26.30;49.20
51476;DHT22;37554;50.362;7.568;2023-07-31T11:57:32;26.00;49.90
51476;DHT22;37554;50.362;7.568;2023-07-31T11:59:58;26.00;50.20
51476;DHT22;37554;50.362;7.568;2023-07-31T12:02:24;26.10;50.20
51476;DHT22;37554;50.362;7.568;2023-07-31T12:04:50;26.30;49.70
51476;DHT22;37554;50.362;7.568;2023-07-31T12:07:16;27.30;48.40
51476;DHT22;37554;50.362;7.568;2023-07-31T12:09:54;27.20;47.90
51476;DHT22;37554;50.362;7.568;2023-07-31T12:12:25;27.30;48.10
51476;DHT22;37554;50.362;7.568;2023-07-31T12:14:51;27.60;47.60
51476;DHT22;37554;50.362;7.568;2023-07-31T12:17:19;28.20;47.20
51476;DHT22;37554;50.362;7.568;2023-07-31T12:19:45;28.80;46.40
51476;DHT22;37554;50.362;7.568;2023-07-31T12:22:12;29.50;45.20
51476;DHT22;37554;50.362;7.568;2023-07-31T12:24:39;29.60;44.70
51476;DHT22;37554;50.362;7.568;2023-07-31T12:27:15;29.20;44.50
51476;DHT22;37554;50.362;7.568;2023-07-31T12:29:42;28.50;45.70
51476;DHT22;37554;50.362;7.568;2023-07-31T12:32:21;27.80;46.90
51476;DHT22;37554;50.362;7.568;2023-07-31T12:34:47;27.10;47.80
51476;DHT22;37554;50.362;7.568;2023-07-31T12:37:12;26.80;48.60
51476;DHT22;37554;50.362;7.568;2023-07-31T12:39:38;26.70;48.90
51476;DHT22;37554;50.362;7.568;2023-07-31T12:42:04;26.50;49.10
51476;DHT22;37554;50.362;7.568;2023-07-31T12:44:30;26.40;49.30
51476;DHT22;37554;50.362;7.568;2023-07-31T12:46:55;26.20;49.50
51476;DHT22;37554;50.362;7.568;2023-07-31T12:49:21;26.10;50.00
51476;DHT22;37554;50.362;7.568;2023-07-31T12:51:46;25.90;50.20
51476;DHT22;37554;50.362;7.568;2023-07-31T12:54:12;25.80;50.70
51476;DHT22;37554;50.362;7.568;2023-07-31T12:56:38;25.80;50.80
51476;DHT22;37554;50.362;7.568;2023-07-31T12:59:03;25.90;50.80
51476;DHT22;37554;50.362;7.568;2023-07-31T13:01:29;25.90;50.70
51476;DHT22;37554;50.362;7.568;2023-07-31T13:03:55;25.90;50.80
51476;DHT22;37554;50.362;7.568;2023-07-31T13:06:20;25.80;50.90
51476;DHT22;37554;50.362;7.568;2023-07-31T13:08:46;25.70;51.10
51476;DHT22;37554;50.362;7.568;2023-07-31T13:11:12;25.70;51.20
51476;DHT22;37554;50.362;7.568;2023-07-31T13:13:38;25.70;51.30
51476;DHT22;37554;50.362;7.568;2023-07-31T13:16:04;25.60;51.30
51476;DHT22;37554;50.362;7.568;2023-07-31T13:18:29;25.60;51.40
51476;DHT22;37554;50.362;7.568;2023-07-31T13:20:55;25.50;51.50
51476;DHT22;37554;50.362;7.568;2023-07-31T13:23:20;25.40;51.70
51476;DHT22;37554;50.362;7.568;2023-07-31T13:25:46;25.30;51.90
51476;DHT22;37554;50.362;7.568;2023-07-31T13:28:15;25.30;52.30
51476;DHT22;37554;50.362;7.568;2023-07-31T13:30:40;25.20;52.50
51476;DHT22;37554;50.362;7.568;2023-07-31T13:33:06;25.20;52.60
51476;DHT22;37554;50.362;7.568;2023-07-31T13:35:32;25.30;52.70
51476;DHT22;37554;50.362;7.568;2023-07-31T13:37:57;25.30;52.70
51476;DHT22;37554;50.362;7.568;2023-07-31T13:40:23;25.30;52.60
51476;DHT22;37554;50.362;7.568;2023-07-31T13:42:48;25.30;52.70
51476;DHT22;37554;50.362;7.568;2023-07-31T13:45:15;25.30;52.80
51476;DHT22;37554;50.362;7.568;2023-07-31T13:47:40;25.20;52.90
51476;DHT22;37554;50.362;7.568;2023-07-31T13:50:06;25.20;53.10
51476;DHT22;37554;50.362;7.568;2023-07-31T13:52:32;25.20;53.20
51476;DHT22;37554;50.362;7.568;2023-07-31T13:54:57;25.30;53.20
51476;DHT22;37554;50.362;7.568;2023-07-31T13:57:23;25.30;53.30
51476;DHT22;37554;50.362;7.568;2023-07-31T13:59:49;25.30;53.40
51476;DHT22;37554;50.362;7.568;2023-07-31T14:02:14;25.30;53.20
51476;DHT22;37554;50.362;7.568;2023-07-31T14:04:40;25.40;53.30
51476;DHT22;37554;50.362;7.568;2023-07-31T14:07:06;25.40;53.30
51476;DHT22;37554;50.362;7.568;2023-07-31T14:09:32;25.40;53.30
51476;DHT22;37554;50.362;7.568;2023-07-31T14:11:58;25.40;53.50
51476;DHT22;37554;50.362;7.568;2023-07-31T14:14:23;25.40;53.70
51476;DHT22;37554;50.362;7.568;2023-07-31T14:16:49;25.50;53.80
51476;DHT22;37554;50.362;7.568;2023-07-31T14:19:15;25.50;53.80
51476;DHT22;37554;50.362;7.568;2023-07-31T14:21:40;25.50;53.80
51476;DHT22;37554;50.362;7.568;2023-07-31T14:24:06;25.60;53.60
51476;DHT22;37554;50.362;7.568;2023-07-31T14:26:32;25.80;53.20
51476;DHT22;37554;50.362;7.568;2023-07-31T14:28:57;26.50;52.40
51476;DHT22;37554;50.362;7.568;2023-07-31T14:31:23;26.70;51.30
51476;DHT22;37554;50.362;7.568;2023-07-31T14:33:49;26.60;51.40
51476;DHT22;37554;50.362;7.568;2023-07-31T14:36:14;26.30;51.60
51476;DHT22;37554;50.362;7.568;2023-07-31T14:38:40;26.20;51.90
51476;DHT22;37554;50.362;7.568;2023-07-31T14:41:05;26.00;52.30
51476;DHT22;37554;50.362;7.568;2023-07-31T14:43:31;26.10;52.20
51476;DHT22;37554;50.362;7.568;2023-07-31T14:45:57;26.10;52.20
51476;DHT22;37554;50.362;7.568;2023-07-31T14:48:25;26.00;52.40
51476;DHT22;37554;50.362;7.568;2023-07-31T14:50:51;25.80;52.70
51476;DHT22;37554;50.362;7.568;2023-07-31T14:53:17;25.60;53.00
51476;DHT22;37554;50.362;7.568;2023-07-31T14:55:42;25.60;53.10
51476;DHT22;37554;50.362;7.568;2023-07-31T14:58:08;25.70;53.00
51476;DHT22;37554;50.362;7.568;2023-07-31T15:00:36;25.70;53.00
51476;DHT22;37554;50.362;7.568;2023-07-31T15:03:02;25.60;52.90
51476;DHT22;37554;50.362;7.568;2023-07-31T15:05:28;25.50;53.00
51476;DHT22;37554;50.362;7.568;2023-07-31T15:07:54;25.30;53.40
51476;DHT22;37554;50.362;7.568;2023-07-31T15:10:19;25.20;53.70
51476;DHT22;37554;50.362;7.568;2023-07-31T15:12:45;25.10;54.00
51476;DHT22;37554;50.362;7.568;2023-07-31T15:15:11;24.90;54.30
51476;DHT22;37554;50.362;7.568;2023-07-31T15:17:37;24.80;54.70
51476;DHT22;37554;50.362;7.568;2023-07-31T15:20:03;24.70;54.80
51476;DHT22;37554;50.362;7.568;2023-07-31T15:22:29;24.50;55.00
51476;DHT22;37554;50.362;7.568;2023-07-31T15:24:56;24.40;55.40
51476;DHT22;37554;50.362;7.568;2023-07-31T15:27:22;24.50;55.50
51476;DHT22;37554;50.362;7.568;2023-07-31T15:29:49;24.70;55.50
51476;DHT22;37554;50.362;7.568;2023-07-31T15:32:16;24.90;55.20
51476;DHT22;37554;50.362;7.568;2023-07-31T15:34:43;25.10;55.00
51476;DHT22;37554;50.362;7.568;2023-07-31T15:37:09;25.20;54.90
51476;DHT22;37554;50.362;7.568;2023-07-31T15:39:34;25.30;54.90
51476;DHT22;37554;50.362;7.568;2023-07-31T15:42:00;25.30;54.60
51476;DHT22;37554;50.362;7.568;2023-07-31T15:44:26;25.10;54.60
51476;DHT22;37554;50.362;7.568;2023-07-31T15:46:52;25.10;54.60